Terminal Aerodrome Forecast
Issued by NWS

Current Version | Previous Version | Text Only | Print | Product List | Glossary On
Versions: 1 2 3 4 5 6 7 8 9 10 11 12 13 14 15 16 17 18 19
000
FTUS41 KBTV 260540
TAFSLK
TAF
KSLK 260540Z 2606/2706 00000KT 1/4SM FZFG VV001
      TEMPO 2606/2610 1/2SM FZFG VV002
     FM261300 18007KT P6SM BKN250
     FM261800 18009G17KT P6SM OVC100
     FM270000 18009KT P6SM OVC050
     FM270300 20009KT P6SM VCSH OVC035=

USA.gov is the U.S. government's official web portal to all federal, state and local government web resources and services.